sensor_id;sensor_type;location;lat;lon;timestamp;P1;durP1;ratioP1;P2;durP2;ratioP2
10309;SDS011;5200;43.236;27.986;2023-09-19T00:00:31;3.67;;;3.38;;
10309;SDS011;5200;43.236;27.986;2023-09-19T00:02:59;4.93;;;4.43;;
10309;SDS011;5200;43.236;27.986;2023-09-19T00:05:28;4.70;;;4.07;;
10309;SDS011;5200;43.236;27.986;2023-09-19T00:07:57;4.60;;;4.05;;
10309;SDS011;5200;43.236;27.986;2023-09-19T00:10:24;4.70;;;4.30;;
10309;SDS011;5200;43.236;27.986;2023-09-19T00:12:52;4.15;;;3.85;;
10309;SDS011;5200;43.236;27.986;2023-09-19T00:15:20;5.38;;;4.10;;
10309;SDS011;5200;43.236;27.986;2023-09-19T00:17:48;4.35;;;4.00;;
10309;SDS011;5200;43.236;27.986;2023-09-19T00:20:17;7.32;;;4.38;;
10309;SDS011;5200;43.236;27.986;2023-09-19T00:22:48;5.22;;;4.07;;
10309;SDS011;5200;43.236;27.986;2023-09-19T00:25:15;8.55;;;4.63;;
10309;SDS011;5200;43.236;27.986;2023-09-19T00:27:42;4.30;;;3.80;;
10309;SDS011;5200;43.236;27.986;2023-09-19T00:30:10;5.13;;;4.30;;
10309;SDS011;5200;43.236;27.986;2023-09-19T00:32:39;4.32;;;3.97;;
10309;SDS011;5200;43.236;27.986;2023-09-19T00:35:07;5.78;;;4.22;;
10309;SDS011;5200;43.236;27.986;2023-09-19T00:37:35;4.40;;;4.00;;
10309;SDS011;5200;43.236;27.986;2023-09-19T00:40:03;5.50;;;4.15;;
10309;SDS011;5200;43.236;27.986;2023-09-19T00:42:32;6.60;;;4.18;;
10309;SDS011;5200;43.236;27.986;2023-09-19T00:44:59;6.57;;;4.43;;
10309;SDS011;5200;43.236;27.986;2023-09-19T00:47:28;4.70;;;4.00;;
10309;SDS011;5200;43.236;27.986;2023-09-19T00:49:56;5.15;;;4.55;;
10309;SDS011;5200;43.236;27.986;2023-09-19T00:52:23;4.13;;;3.65;;
10309;SDS011;5200;43.236;27.986;2023-09-19T00:54:51;6.93;;;4.05;;
10309;SDS011;5200;43.236;27.986;2023-09-19T00:57:19;6.38;;;4.30;;
10309;SDS011;5200;43.236;27.986;2023-09-19T00:59:48;4.57;;;4.18;;
10309;SDS011;5200;43.236;27.986;2023-09-19T01:02:16;5.45;;;4.35;;
10309;SDS011;5200;43.236;27.986;2023-09-19T01:04:43;5.38;;;3.90;;
10309;SDS011;5200;43.236;27.986;2023-09-19T01:07:11;4.93;;;4.18;;
10309;SDS011;5200;43.236;27.986;2023-09-19T01:09:39;5.50;;;4.57;;
10309;SDS011;5200;43.236;27.986;2023-09-19T01:12:07;4.10;;;3.70;;
10309;SDS011;5200;43.236;27.986;2023-09-19T01:14:40;5.07;;;3.90;;
10309;SDS011;5200;43.236;27.986;2023-09-19T01:17:20;6.75;;;4.40;;
10309;SDS011;5200;43.236;27.986;2023-09-19T01:20:05;4.47;;;3.58;;
10309;SDS011;5200;43.236;27.986;2023-09-19T01:23:00;5.28;;;4.75;;
10309;SDS011;5200;43.236;27.986;2023-09-19T01:28:39;4.18;;;3.85;;
10309;SDS011;5200;43.236;27.986;2023-09-19T01:31:20;4.43;;;4.03;;
10309;SDS011;5200;43.236;27.986;2023-09-19T01:33:55;3.90;;;3.60;;
10309;SDS011;5200;43.236;27.986;2023-09-19T01:36:24;4.95;;;4.15;;
10309;SDS011;5200;43.236;27.986;2023-09-19T01:38:57;5.28;;;4.70;;
10309;SDS011;5200;43.236;27.986;2023-09-19T01:41:34;5.40;;;4.30;;
10309;SDS011;5200;43.236;27.986;2023-09-19T01:44:22;7.78;;;4.65;;
10309;SDS011;5200;43.236;27.986;2023-09-19T01:46:53;4.75;;;4.28;;
10309;SDS011;5200;43.236;27.986;2023-09-19T01:49:31;6.05;;;3.60;;
10309;SDS011;5200;43.236;27.986;2023-09-19T01:52:05;7.25;;;4.28;;
10309;SDS011;5200;43.236;27.986;2023-09-19T01:54:40;5.25;;;4.18;;
10309;SDS011;5200;43.236;27.986;2023-09-19T01:57:14;5.95;;;4.22;;
10309;SDS011;5200;43.236;27.986;2023-09-19T01:59:48;5.60;;;3.95;;
10309;SDS011;5200;43.236;27.986;2023-09-19T02:02:19;4.22;;;3.83;;
10309;SDS011;5200;43.236;27.986;2023-09-19T02:04:47;4.47;;;4.07;;
10309;SDS011;5200;43.236;27.986;2023-09-19T02:07:15;6.03;;;4.55;;
10309;SDS011;5200;43.236;27.986;2023-09-19T02:09:43;7.10;;;4.10;;
10309;SDS011;5200;43.236;27.986;2023-09-19T02:12:10;6.68;;;4.22;;
10309;SDS011;5200;43.236;27.986;2023-09-19T02:14:36;5.10;;;4.57;;
10309;SDS011;5200;43.236;27.986;2023-09-19T02:17:03;4.30;;;3.95;;
10309;SDS011;5200;43.236;27.986;2023-09-19T02:19:33;10.98;;;4.50;;
10309;SDS011;5200;43.236;27.986;2023-09-19T02:22:01;4.70;;;4.25;;
10309;SDS011;5200;43.236;27.986;2023-09-19T02:24:32;3.95;;;3.50;;
10309;SDS011;5200;43.236;27.986;2023-09-19T02:27:00;4.35;;;3.92;;
10309;SDS011;5200;43.236;27.986;2023-09-19T02:29:29;8.25;;;4.10;;
10309;SDS011;5200;43.236;27.986;2023-09-19T02:31:56;5.07;;;4.35;;
10309;SDS011;5200;43.236;27.986;2023-09-19T02:34:23;6.28;;;4.05;;
10309;SDS011;5200;43.236;27.986;2023-09-19T02:36:52;7.35;;;4.20;;
10309;SDS011;5200;43.236;27.986;2023-09-19T02:39:21;5.35;;;4.03;;
10309;SDS011;5200;43.236;27.986;2023-09-19T02:41:48;4.60;;;4.20;;
10309;SDS011;5200;43.236;27.986;2023-09-19T02:44:15;7.50;;;4.60;;
10309;SDS011;5200;43.236;27.986;2023-09-19T02:46:42;5.03;;;4.30;;
10309;SDS011;5200;43.236;27.986;2023-09-19T02:49:09;4.80;;;4.28;;
10309;SDS011;5200;43.236;27.986;2023-09-19T02:51:38;4.50;;;4.15;;
10309;SDS011;5200;43.236;27.986;2023-09-19T02:54:07;6.50;;;4.63;;
10309;SDS011;5200;43.236;27.986;2023-09-19T02:56:34;4.25;;;3.95;;
10309;SDS011;5200;43.236;27.986;2023-09-19T02:59:02;4.80;;;3.97;;
10309;SDS011;5200;43.236;27.986;2023-09-19T03:01:29;4.18;;;3.80;;
10309;SDS011;5200;43.236;27.986;2023-09-19T03:03:57;4.53;;;4.13;;
10309;SDS011;5200;43.236;27.986;2023-09-19T03:06:24;5.60;;;4.35;;
10309;SDS011;5200;43.236;27.986;2023-09-19T03:08:51;4.65;;;4.25;;
10309;SDS011;5200;43.236;27.986;2023-09-19T03:11:22;4.60;;;4.20;;
10309;SDS011;5200;43.236;27.986;2023-09-19T03:13:53;4.90;;;4.18;;
10309;SDS011;5200;43.236;27.986;2023-09-19T03:16:20;5.30;;;4.75;;
10309;SDS011;5200;43.236;27.986;2023-09-19T03:18:47;4.40;;;4.03;;
10309;SDS011;5200;43.236;27.986;2023-09-19T03:21:15;5.22;;;4.70;;
10309;SDS011;5200;43.236;27.986;2023-09-19T03:23:42;5.13;;;4.28;;
10309;SDS011;5200;43.236;27.986;2023-09-19T03:26:10;4.00;;;3.60;;
10309;SDS011;5200;43.236;27.986;2023-09-19T03:28:41;4.50;;;4.10;;
10309;SDS011;5200;43.236;27.986;2023-09-19T03:31:08;7.30;;;4.57;;
10309;SDS011;5200;43.236;27.986;2023-09-19T03:33:35;4.88;;;4.07;;
10309;SDS011;5200;43.236;27.986;2023-09-19T03:36:03;4.72;;;4.32;;
10309;SDS011;5200;43.236;27.986;2023-09-19T03:38:31;5.85;;;4.10;;
10309;SDS011;5200;43.236;27.986;2023-09-19T03:40:59;5.55;;;4.85;;
10309;SDS011;5200;43.236;27.986;2023-09-19T03:43:28;4.85;;;4.18;;
10309;SDS011;5200;43.236;27.986;2023-09-19T03:45:56;5.63;;;4.40;;
10309;SDS011;5200;43.236;27.986;2023-09-19T03:48:28;6.13;;;4.60;;
10309;SDS011;5200;43.236;27.986;2023-09-19T03:50:55;4.90;;;4.30;;
10309;SDS011;5200;43.236;27.986;2023-09-19T03:53:22;4.97;;;4.43;;
10309;SDS011;5200;43.236;27.986;2023-09-19T03:55:49;5.43;;;4.35;;
10309;SDS011;5200;43.236;27.986;2023-09-19T03:58:16;5.80;;;4.25;;
10309;SDS011;5200;43.236;27.986;2023-09-19T04:00:43;5.85;;;4.78;;
10309;SDS011;5200;43.236;27.986;2023-09-19T04:03:11;6.50;;;4.75;;
10309;SDS011;5200;43.236;27.986;2023-09-19T04:05:44;4.70;;;4.30;;
10309;SDS011;5200;43.236;27.986;2023-09-19T04:08:12;6.28;;;5.13;;
10309;SDS011;5200;43.236;27.986;2023-09-19T04:10:40;6.45;;;5.13;;
10309;SDS011;5200;43.236;27.986;2023-09-19T04:13:08;7.18;;;4.60;;
10309;SDS011;5200;43.236;27.986;2023-09-19T04:15:36;5.13;;;4.63;;
10309;SDS011;5200;43.236;27.986;2023-09-19T04:18:02;8.25;;;5.18;;
10309;SDS011;5200;43.236;27.986;2023-09-19T04:20:32;7.70;;;4.97;;
10309;SDS011;5200;43.236;27.986;2023-09-19T04:22:59;5.53;;;4.38;;
10309;SDS011;5200;43.236;27.986;2023-09-19T04:25:26;5.80;;;4.53;;
10309;SDS011;5200;43.236;27.986;2023-09-19T04:27:53;5.53;;;4.47;;
10309;SDS011;5200;43.236;27.986;2023-09-19T04:30:19;5.57;;;4.97;;
10309;SDS011;5200;43.236;27.986;2023-09-19T04:32:46;10.55;;;4.40;;
10309;SDS011;5200;43.236;27.986;2023-09-19T04:35:15;10.25;;;4.50;;
10309;SDS011;5200;43.236;27.986;2023-09-19T04:37:44;6.70;;;3.97;;
10309;SDS011;5200;43.236;27.986;2023-09-19T04:40:11;8.15;;;4.47;;
10309;SDS011;5200;43.236;27.986;2023-09-19T04:42:42;5.75;;;4.22;;
10309;SDS011;5200;43.236;27.986;2023-09-19T04:45:09;6.45;;;4.28;;
10309;SDS011;5200;43.236;27.986;2023-09-19T04:47:37;6.78;;;4.57;;
10309;SDS011;5200;43.236;27.986;2023-09-19T04:50:06;4.60;;;3.55;;
10309;SDS011;5200;43.236;27.986;2023-09-19T04:52:37;13.15;;;4.82;;
10309;SDS011;5200;43.236;27.986;2023-09-19T04:55:09;6.70;;;4.60;;
10309;SDS011;5200;43.236;27.986;2023-09-19T04:57:36;6.50;;;4.03;;
10309;SDS011;5200;43.236;27.986;2023-09-19T05:00:04;5.28;;;3.95;;
10309;SDS011;5200;43.236;27.986;2023-09-19T05:02:37;12.38;;;3.80;;
10309;SDS011;5200;43.236;27.986;2023-09-19T05:05:05;5.88;;;4.35;;
10309;SDS011;5200;43.236;27.986;2023-09-19T05:07:33;7.00;;;4.05;;
10309;SDS011;5200;43.236;27.986;2023-09-19T05:10:00;14.38;;;3.95;;
10309;SDS011;5200;43.236;27.986;2023-09-19T05:12:31;4.53;;;3.60;;
10309;SDS011;5200;43.236;27.986;2023-09-19T05:14:59;6.43;;;3.72;;
10309;SDS011;5200;43.236;27.986;2023-09-19T05:17:26;4.82;;;4.00;;
10309;SDS011;5200;43.236;27.986;2023-09-19T05:19:53;8.60;;;3.85;;
10309;SDS011;5200;43.236;27.986;2023-09-19T05:22:20;6.22;;;4.20;;
10309;SDS011;5200;43.236;27.986;2023-09-19T05:24:49;5.57;;;4.25;;
10309;SDS011;5200;43.236;27.986;2023-09-19T05:27:18;7.43;;;3.65;;
10309;SDS011;5200;43.236;27.986;2023-09-19T05:29:47;13.00;;;3.70;;
10309;SDS011;5200;43.236;27.986;2023-09-19T05:32:16;5.40;;;3.30;;
10309;SDS011;5200;43.236;27.986;2023-09-19T05:34:44;6.65;;;3.65;;
10309;SDS011;5200;43.236;27.986;2023-09-19T05:37:12;12.88;;;3.70;;
10309;SDS011;5200;43.236;27.986;2023-09-19T05:39:41;3.42;;;3.15;;
10309;SDS011;5200;43.236;27.986;2023-09-19T05:42:08;6.80;;;3.83;;
10309;SDS011;5200;43.236;27.986;2023-09-19T05:44:34;6.00;;;3.40;;
10309;SDS011;5200;43.236;27.986;2023-09-19T05:47:03;4.70;;;3.47;;
10309;SDS011;5200;43.236;27.986;2023-09-19T05:49:30;4.32;;;3.35;;
10309;SDS011;5200;43.236;27.986;2023-09-19T05:51:58;6.40;;;3.33;;
10309;SDS011;5200;43.236;27.986;2023-09-19T05:54:26;4.75;;;3.17;;
10309;SDS011;5200;43.236;27.986;2023-09-19T05:56:53;6.30;;;3.35;;
10309;SDS011;5200;43.236;27.986;2023-09-19T05:59:20;3.60;;;3.30;;
10309;SDS011;5200;43.236;27.986;2023-09-19T06:01:47;7.45;;;3.08;;
10309;SDS011;5200;43.236;27.986;2023-09-19T06:04:16;8.18;;;3.58;;
10309;SDS011;5200;43.236;27.986;2023-09-19T06:06:44;3.63;;;3.30;;
10309;SDS011;5200;43.236;27.986;2023-09-19T06:09:14;4.13;;;3.78;;
10309;SDS011;5200;43.236;27.986;2023-09-19T06:11:41;3.40;;;3.10;;
10309;SDS011;5200;43.236;27.986;2023-09-19T06:14:08;4.00;;;3.60;;
10309;SDS011;5200;43.236;27.986;2023-09-19T06:16:35;3.72;;;3.22;;
10309;SDS011;5200;43.236;27.986;2023-09-19T06:19:03;3.80;;;3.45;;
10309;SDS011;5200;43.236;27.986;2023-09-19T06:21:35;3.72;;;3.42;;
10309;SDS011;5200;43.236;27.986;2023-09-19T06:24:02;4.13;;;3.58;;
10309;SDS011;5200;43.236;27.986;2023-09-19T06:26:29;4.70;;;3.50;;
10309;SDS011;5200;43.236;27.986;2023-09-19T06:28:57;6.15;;;3.45;;
10309;SDS011;5200;43.236;27.986;2023-09-19T08:21:34;7.07;;;3.35;;
10309;SDS011;5200;43.236;27.986;2023-09-19T08:24:01;3.60;;;3.30;;
10309;SDS011;5200;43.236;27.986;2023-09-19T08:26:29;5.22;;;3.25;;
10309;SDS011;5200;43.236;27.986;2023-09-19T08:28:56;3.50;;;3.20;;
10309;SDS011;5200;43.236;27.986;2023-09-19T08:31:23;5.72;;;3.50;;
10309;SDS011;5200;43.236;27.986;2023-09-19T08:33:51;4.93;;;4.38;;
10309;SDS011;5200;43.236;27.986;2023-09-19T08:36:21;9.07;;;3.85;;
10309;SDS011;5200;43.236;27.986;2023-09-19T08:38:49;8.98;;;3.88;;
10309;SDS011;5200;43.236;27.986;2023-09-19T08:41:16;5.50;;;3.50;;
10309;SDS011;5200;43.236;27.986;2023-09-19T08:43:43;8.50;;;3.67;;
10309;SDS011;5200;43.236;27.986;2023-09-19T08:46:14;5.13;;;3.33;;
10309;SDS011;5200;43.236;27.986;2023-09-19T08:48:44;3.92;;;3.00;;
10309;SDS011;5200;43.236;27.986;2023-09-19T08:51:17;3.85;;;3.45;;
10309;SDS011;5200;43.236;27.986;2023-09-19T08:53:51;3.75;;;3.38;;
10309;SDS011;5200;43.236;27.986;2023-09-19T08:56:32;5.53;;;3.17;;
10309;SDS011;5200;43.236;27.986;2023-09-19T08:59:02;3.72;;;2.95;;
10309;SDS011;5200;43.236;27.986;2023-09-19T09:01:32;8.35;;;3.40;;
10309;SDS011;5200;43.236;27.986;2023-09-19T09:04:00;5.32;;;3.17;;
10309;SDS011;5200;43.236;27.986;2023-09-19T09:06:29;3.40;;;3.00;;
10309;SDS011;5200;43.236;27.986;2023-09-19T09:08:59;3.22;;;2.92;;
10309;SDS011;5200;43.236;27.986;2023-09-19T09:11:26;4.40;;;3.10;;
10309;SDS011;5200;43.236;27.986;2023-09-19T09:13:53;7.15;;;2.88;;
10309;SDS011;5200;43.236;27.986;2023-09-19T09:16:21;5.00;;;3.35;;
10309;SDS011;5200;43.236;27.986;2023-09-19T09:18:51;4.90;;;3.35;;
10309;SDS011;5200;43.236;27.986;2023-09-19T09:21:19;3.72;;;2.92;;
10309;SDS011;5200;43.236;27.986;2023-09-19T09:23:46;4.70;;;3.42;;
10309;SDS011;5200;43.236;27.986;2023-09-19T09:26:15;3.47;;;3.00;;
10309;SDS011;5200;43.236;27.986;2023-09-19T09:28:44;4.07;;;2.95;;
10309;SDS011;5200;43.236;27.986;2023-09-19T09:31:21;3.47;;;2.72;;
10309;SDS011;5200;43.236;27.986;2023-09-19T09:33:52;4.82;;;3.00;;
10309;SDS011;5200;43.236;27.986;2023-09-19T09:36:32;5.85;;;2.97;;
10309;SDS011;5200;43.236;27.986;2023-09-19T09:39:01;4.38;;;3.40;;
10309;SDS011;5200;43.236;27.986;2023-09-19T09:41:42;5.97;;;2.83;;
10309;SDS011;5200;43.236;27.986;2023-09-19T09:44:12;4.28;;;2.97;;
10309;SDS011;5200;43.236;27.986;2023-09-19T09:46:42;4.13;;;2.95;;
10309;SDS011;5200;43.236;27.986;2023-09-19T09:49:38;4.00;;;2.80;;
10309;SDS011;5200;43.236;27.986;2023-09-19T09:52:05;3.90;;;2.92;;
10309;SDS011;5200;43.236;27.986;2023-09-19T09:54:41;4.00;;;2.90;;
10309;SDS011;5200;43.236;27.986;2023-09-19T09:57:26;3.53;;;3.22;;
10309;SDS011;5200;43.236;27.986;2023-09-19T09:59:55;4.13;;;2.72;;
10309;SDS011;5200;43.236;27.986;2023-09-19T10:02:25;5.43;;;3.17;;
10309;SDS011;5200;43.236;27.986;2023-09-19T10:04:54;3.40;;;3.08;;
10309;SDS011;5200;43.236;27.986;2023-09-19T10:07:34;3.63;;;3.15;;
10309;SDS011;5200;43.236;27.986;2023-09-19T10:10:03;4.53;;;3.13;;
10309;SDS011;5200;43.236;27.986;2023-09-19T10:12:42;5.63;;;3.33;;
10309;SDS011;5200;43.236;27.986;2023-09-19T10:15:11;3.50;;;3.10;;
10309;SDS011;5200;43.236;27.986;2023-09-19T10:17:42;5.63;;;3.08;;
10309;SDS011;5200;43.236;27.986;2023-09-19T10:20:12;5.05;;;3.35;;
10309;SDS011;5200;43.236;27.986;2023-09-19T10:22:52;3.92;;;3.20;;
10309;SDS011;5200;43.236;27.986;2023-09-19T10:25:26;5.13;;;3.40;;
10309;SDS011;5200;43.236;27.986;2023-09-19T10:27:57;4.63;;;3.35;;
10309;SDS011;5200;43.236;27.986;2023-09-19T10:30:28;3.95;;;3.60;;
10309;SDS011;5200;43.236;27.986;2023-09-19T10:33:00;4.85;;;3.30;;
10309;SDS011;5200;43.236;27.986;2023-09-19T10:35:28;4.30;;;3.60;;
10309;SDS011;5200;43.236;27.986;2023-09-19T10:37:57;4.35;;;3.60;;
10309;SDS011;5200;43.236;27.986;2023-09-19T10:40:26;4.15;;;2.95;;
10309;SDS011;5200;43.236;27.986;2023-09-19T10:43:00;6.60;;;2.97;;
10309;SDS011;5200;43.236;27.986;2023-09-19T10:45:30;5.32;;;3.40;;
10309;SDS011;5200;43.236;27.986;2023-09-19T10:47:58;6.18;;;3.28;;
10309;SDS011;5200;43.236;27.986;2023-09-19T10:50:25;3.25;;;2.92;;
10309;SDS011;5200;43.236;27.986;2023-09-19T10:52:57;4.47;;;4.00;;
10309;SDS011;5200;43.236;27.986;2023-09-19T10:55:30;3.60;;;3.30;;
10309;SDS011;5200;43.236;27.986;2023-09-19T10:58:02;4.80;;;3.50;;
10309;SDS011;5200;43.236;27.986;2023-09-19T11:00:49;3.88;;;3.00;;
10309;SDS011;5200;43.236;27.986;2023-09-19T11:03:18;5.03;;;3.08;;
10309;SDS011;5200;43.236;27.986;2023-09-19T11:06:01;5.32;;;3.47;;
10309;SDS011;5200;43.236;27.986;2023-09-19T11:11:41;7.18;;;3.88;;
10309;SDS011;5200;43.236;27.986;2023-09-19T11:14:16;5.25;;;3.58;;
10309;SDS011;5200;43.236;27.986;2023-09-19T11:20:18;6.20;;;3.42;;
10309;SDS011;5200;43.236;27.986;2023-09-19T11:23:19;3.95;;;3.55;;
10309;SDS011;5200;43.236;27.986;2023-09-19T11:25:56;4.85;;;3.40;;
10309;SDS011;5200;43.236;27.986;2023-09-19T11:28:32;7.07;;;3.42;;
10309;SDS011;5200;43.236;27.986;2023-09-19T11:40:27;4.10;;;3.70;;
10309;SDS011;5200;43.236;27.986;2023-09-19T11:42:55;5.10;;;3.15;;
10309;SDS011;5200;43.236;27.986;2023-09-19T11:48:27;3.67;;;3.33;;
10309;SDS011;5200;43.236;27.986;2023-09-19T11:50:57;7.65;;;5.63;;
10309;SDS011;5200;43.236;27.986;2023-09-19T11:53:25;15.13;;;7.85;;
10309;SDS011;5200;43.236;27.986;2023-09-19T11:56:01;8.60;;;5.80;;
10309;SDS011;5200;43.236;27.986;2023-09-19T11:58:30;9.25;;;5.65;;
10309;SDS011;5200;43.236;27.986;2023-09-19T12:00:58;5.05;;;4.35;;
10309;SDS011;5200;43.236;27.986;2023-09-19T12:03:29;4.35;;;3.88;;
10309;SDS011;5200;43.236;27.986;2023-09-19T12:06:00;11.70;;;5.15;;
10309;SDS011;5200;43.236;27.986;2023-09-19T12:08:28;8.43;;;5.55;;
10309;SDS011;5200;43.236;27.986;2023-09-19T12:10:55;4.72;;;3.83;;
10309;SDS011;5200;43.236;27.986;2023-09-19T12:13:23;6.97;;;3.47;;
10309;SDS011;5200;43.236;27.986;2023-09-19T12:15:50;10.77;;;6.10;;
10309;SDS011;5200;43.236;27.986;2023-09-19T12:18:27;6.72;;;4.43;;
10309;SDS011;5200;43.236;27.986;2023-09-19T12:20:54;7.13;;;4.38;;
10309;SDS011;5200;43.236;27.986;2023-09-19T12:23:24;7.07;;;4.82;;
10309;SDS011;5200;43.236;27.986;2023-09-19T12:25:51;4.53;;;3.50;;
10309;SDS011;5200;43.236;27.986;2023-09-19T12:28:21;3.75;;;3.45;;
10309;SDS011;5200;43.236;27.986;2023-09-19T12:30:51;7.18;;;4.15;;
10309;SDS011;5200;43.236;27.986;2023-09-19T12:33:20;8.40;;;4.20;;
10309;SDS011;5200;43.236;27.986;2023-09-19T12:35:51;4.40;;;3.30;;
10309;SDS011;5200;43.236;27.986;2023-09-19T12:38:24;6.07;;;3.85;;
10309;SDS011;5200;43.236;27.986;2023-09-19T12:40:53;5.28;;;3.90;;
10309;SDS011;5200;43.236;27.986;2023-09-19T12:43:22;7.38;;;4.63;;
10309;SDS011;5200;43.236;27.986;2023-09-19T12:45:49;7.65;;;4.35;;
10309;SDS011;5200;43.236;27.986;2023-09-19T12:48:19;8.75;;;4.07;;
10309;SDS011;5200;43.236;27.986;2023-09-19T12:51:01;5.18;;;4.13;;
10309;SDS011;5200;43.236;27.986;2023-09-19T12:53:32;7.47;;;3.70;;
10309;SDS011;5200;43.236;27.986;2023-09-19T12:56:03;3.60;;;3.30;;
10309;SDS011;5200;43.236;27.986;2023-09-19T12:58:33;5.47;;;3.50;;
10309;SDS011;5200;43.236;27.986;2023-09-19T13:01:13;7.30;;;3.38;;
10309;SDS011;5200;43.236;27.986;2023-09-19T13:03:41;5.65;;;3.67;;
10309;SDS011;5200;43.236;27.986;2023-09-19T13:06:08;8.10;;;4.32;;
10309;SDS011;5200;43.236;27.986;2023-09-19T13:08:36;8.48;;;3.42;;
10309;SDS011;5200;43.236;27.986;2023-09-19T13:11:08;4.93;;;3.42;;
10309;SDS011;5200;43.236;27.986;2023-09-19T13:13:38;3.97;;;3.60;;
10309;SDS011;5200;43.236;27.986;2023-09-19T13:16:11;4.03;;;3.63;;
10309;SDS011;5200;43.236;27.986;2023-09-19T13:18:45;4.78;;;3.72;;
10309;SDS011;5200;43.236;27.986;2023-09-19T13:21:15;4.13;;;3.72;;
10309;SDS011;5200;43.236;27.986;2023-09-19T13:23:51;4.15;;;3.75;;
10309;SDS011;5200;43.236;27.986;2023-09-19T13:26:19;5.78;;;3.28;;
10309;SDS011;5200;43.236;27.986;2023-09-19T13:28:47;5.45;;;3.38;;
10309;SDS011;5200;43.236;27.986;2023-09-19T13:31:14;3.50;;;3.20;;
10309;SDS011;5200;43.236;27.986;2023-09-19T13:33:44;7.32;;;3.58;;
10309;SDS011;5200;43.236;27.986;2023-09-19T13:36:12;7.45;;;4.60;;
10309;SDS011;5200;43.236;27.986;2023-09-19T13:38:39;5.00;;;3.92;;
10309;SDS011;5200;43.236;27.986;2023-09-19T13:41:09;4.30;;;3.20;;
10309;SDS011;5200;43.236;27.986;2023-09-19T13:43:36;4.50;;;3.28;;
10309;SDS011;5200;43.236;27.986;2023-09-19T13:46:04;3.67;;;3.38;;
10309;SDS011;5200;43.236;27.986;2023-09-19T13:48:32;5.85;;;3.22;;
10309;SDS011;5200;43.236;27.986;2023-09-19T13:51:01;5.30;;;3.25;;
10309;SDS011;5200;43.236;27.986;2023-09-19T13:53:28;5.93;;;3.50;;
10309;SDS011;5200;43.236;27.986;2023-09-19T13:55:55;5.10;;;3.53;;
10309;SDS011;5200;43.236;27.986;2023-09-19T13:58:23;6.78;;;3.65;;
10309;SDS011;5200;43.236;27.986;2023-09-19T14:00:50;4.75;;;3.33;;
10309;SDS011;5200;43.236;27.986;2023-09-19T14:03:20;3.22;;;2.92;;
10309;SDS011;5200;43.236;27.986;2023-09-19T14:05:47;7.88;;;3.63;;
10309;SDS011;5200;43.236;27.986;2023-09-19T14:08:16;5.10;;;3.63;;
10309;SDS011;5200;43.236;27.986;2023-09-19T14:10:43;4.55;;;3.60;;
10309;SDS011;5200;43.236;27.986;2023-09-19T14:13:10;5.50;;;3.50;;
10309;SDS011;5200;43.236;27.986;2023-09-19T14:15:40;5.50;;;3.15;;
10309;SDS011;5200;43.236;27.986;2023-09-19T14:18:07;3.83;;;3.53;;
10309;SDS011;5200;43.236;27.986;2023-09-19T14:20:37;4.72;;;3.55;;
10309;SDS011;5200;43.236;27.986;2023-09-19T14:23:05;9.32;;;3.75;;
10309;SDS011;5200;43.236;27.986;2023-09-19T14:25:33;5.25;;;3.78;;
10309;SDS011;5200;43.236;27.986;2023-09-19T14:28:01;7.60;;;3.88;;
10309;SDS011;5200;43.236;27.986;2023-09-19T14:30:28;5.28;;;3.55;;
10309;SDS011;5200;43.236;27.986;2023-09-19T14:32:56;6.05;;;3.80;;
10309;SDS011;5200;43.236;27.986;2023-09-19T14:35:23;4.95;;;3.35;;
10309;SDS011;5200;43.236;27.986;2023-09-19T14:37:50;4.45;;;3.33;;
10309;SDS011;5200;43.236;27.986;2023-09-19T14:40:17;6.15;;;3.60;;
10309;SDS011;5200;43.236;27.986;2023-09-19T14:42:46;7.22;;;3.95;;
10309;SDS011;5200;43.236;27.986;2023-09-19T14:45:13;3.75;;;3.33;;
10309;SDS011;5200;43.236;27.986;2023-09-19T14:47:43;5.10;;;3.45;;
10309;SDS011;5200;43.236;27.986;2023-09-19T14:50:11;6.25;;;3.67;;
10309;SDS011;5200;43.236;27.986;2023-09-19T14:52:38;4.88;;;3.20;;
10309;SDS011;5200;43.236;27.986;2023-09-19T14:55:06;6.43;;;3.33;;
10309;SDS011;5200;43.236;27.986;2023-09-19T14:57:34;6.40;;;3.50;;
10309;SDS011;5200;43.236;27.986;2023-09-19T15:00:05;3.60;;;3.30;;
10309;SDS011;5200;43.236;27.986;2023-09-19T15:02:37;3.90;;;3.50;;
10309;SDS011;5200;43.236;27.986;2023-09-19T15:05:04;8.02;;;3.47;;
10309;SDS011;5200;43.236;27.986;2023-09-19T15:07:35;8.63;;;3.65;;
10309;SDS011;5200;43.236;27.986;2023-09-19T15:10:03;7.72;;;4.15;;
10309;SDS011;5200;43.236;27.986;2023-09-19T15:12:34;7.38;;;3.60;;
10309;SDS011;5200;43.236;27.986;2023-09-19T15:15:03;9.35;;;3.67;;
10309;SDS011;5200;43.236;27.986;2023-09-19T15:17:33;4.40;;;3.28;;
10309;SDS011;5200;43.236;27.986;2023-09-19T15:20:00;4.70;;;3.70;;
10309;SDS011;5200;43.236;27.986;2023-09-19T15:22:27;9.60;;;3.88;;
10309;SDS011;5200;43.236;27.986;2023-09-19T15:24:55;11.10;;;3.90;;
10309;SDS011;5200;43.236;27.986;2023-09-19T15:27:22;5.15;;;3.60;;
10309;SDS011;5200;43.236;27.986;2023-09-19T15:29:49;3.53;;;3.22;;
10309;SDS011;5200;43.236;27.986;2023-09-19T15:32:16;3.88;;;3.28;;
10309;SDS011;5200;43.236;27.986;2023-09-19T15:34:43;6.22;;;3.80;;
10309;SDS011;5200;43.236;27.986;2023-09-19T15:37:10;5.55;;;3.67;;
10309;SDS011;5200;43.236;27.986;2023-09-19T15:39:37;6.68;;;3.72;;
10309;SDS011;5200;43.236;27.986;2023-09-19T15:42:05;3.63;;;3.30;;
10309;SDS011;5200;43.236;27.986;2023-09-19T15:44:32;6.18;;;4.05;;
10309;SDS011;5200;43.236;27.986;2023-09-19T15:46:59;7.20;;;3.55;;
10309;SDS011;5200;43.236;27.986;2023-09-19T15:49:26;7.15;;;3.47;;
10309;SDS011;5200;43.236;27.986;2023-09-19T15:51:53;7.22;;;3.92;;
10309;SDS011;5200;43.236;27.986;2023-09-19T15:54:20;8.15;;;3.38;;
10309;SDS011;5200;43.236;27.986;2023-09-19T15:56:47;7.38;;;3.85;;
10309;SDS011;5200;43.236;27.986;2023-09-19T15:59:18;6.80;;;3.28;;
10309;SDS011;5200;43.236;27.986;2023-09-19T16:01:44;4.03;;;3.72;;
10309;SDS011;5200;43.236;27.986;2023-09-19T16:04:11;10.80;;;3.67;;
10309;SDS011;5200;43.236;27.986;2023-09-19T16:06:39;4.00;;;3.53;;
10309;SDS011;5200;43.236;27.986;2023-09-19T16:09:06;8.70;;;3.70;;
10309;SDS011;5200;43.236;27.986;2023-09-19T16:11:35;5.40;;;3.40;;
10309;SDS011;5200;43.236;27.986;2023-09-19T16:14:02;7.82;;;4.38;;
10309;SDS011;5200;43.236;27.986;2023-09-19T16:16:32;5.93;;;3.35;;
10309;SDS011;5200;43.236;27.986;2023-09-19T16:19:02;6.50;;;3.78;;
10309;SDS011;5200;43.236;27.986;2023-09-19T16:21:30;4.05;;;3.40;;
10309;SDS011;5200;43.236;27.986;2023-09-19T16:24:00;4.13;;;3.67;;
10309;SDS011;5200;43.236;27.986;2023-09-19T16:26:27;8.20;;;3.70;;
10309;SDS011;5200;43.236;27.986;2023-09-19T16:28:56;4.30;;;3.55;;
10309;SDS011;5200;43.236;27.986;2023-09-19T16:31:26;5.97;;;3.30;;
10309;SDS011;5200;43.236;27.986;2023-09-19T16:33:55;5.30;;;4.13;;
10309;SDS011;5200;43.236;27.986;2023-09-19T16:36:24;7.22;;;3.70;;
10309;SDS011;5200;43.236;27.986;2023-09-19T16:38:51;6.50;;;4.10;;
10309;SDS011;5200;43.236;27.986;2023-09-19T16:41:18;6.20;;;4.32;;
10309;SDS011;5200;43.236;27.986;2023-09-19T16:43:45;7.00;;;3.83;;
10309;SDS011;5200;43.236;27.986;2023-09-19T16:46:13;8.70;;;4.47;;
10309;SDS011;5200;43.236;27.986;2023-09-19T16:48:42;6.35;;;4.00;;
10309;SDS011;5200;43.236;27.986;2023-09-19T16:51:13;5.18;;;4.47;;
10309;SDS011;5200;43.236;27.986;2023-09-19T16:53:41;6.63;;;4.18;;
10309;SDS011;5200;43.236;27.986;2023-09-19T16:56:11;7.95;;;4.05;;
10309;SDS011;5200;43.236;27.986;2023-09-19T16:58:40;10.18;;;4.25;;
10309;SDS011;5200;43.236;27.986;2023-09-19T17:01:09;8.23;;;3.72;;
10309;SDS011;5200;43.236;27.986;2023-09-19T17:03:36;6.85;;;3.88;;
10309;SDS011;5200;43.236;27.986;2023-09-19T17:06:05;5.18;;;4.18;;
10309;SDS011;5200;43.236;27.986;2023-09-19T17:08:33;8.65;;;3.80;;
10309;SDS011;5200;43.236;27.986;2023-09-19T17:11:01;4.60;;;3.67;;
10309;SDS011;5200;43.236;27.986;2023-09-19T17:13:29;5.53;;;3.70;;